Time;durP1;ratioP1;P1;durP2;ratioP2;P2;SDS_P1;SDS_P2;PMS_P1;PMS_P2;Temp;Humidity;BMP_temperature;BMP_pressure;BME280_temperature;BME280_humidity;BME280_pressure;Samples;Min_cycle;Max_cycle;Signal;HPM_P1;HPM_P2
2022/01/01 00:01:18;;;;;;;108.43;39.08;;;;;;;12.01;95.16;102327.06;5069673;28;20830;-88
2022/01/01 00:03:43;;;;;;;117.83;42.47;;;;;;;11.99;95.15;102323.66;5067367;28;20044;-87
2022/01/01 00:06:08;;;;;;;137.40;50.93;;;;;;;12.00;95.12;102333.19;5069905;28;20340;-87
2022/01/01 00:08:33;;;;;;;153.70;57.05;;;;;;;12.02;95.34;102335.75;5053026;28;20291;-88
2022/01/01 00:10:59;;;;;;;167.73;59.17;;;;;;;12.02;95.29;102340.94;5051472;28;20036;-87
2022/01/01 00:13:24;;;;;;;168.07;61.50;;;;;;;12.02;95.64;102330.53;5065338;28;20035;-87
2022/01/01 00:15:49;;;;;;;162.37;59.33;;;;;;;12.01;95.61;102336.63;5061082;28;20287;-87
2022/01/01 00:18:16;;;;;;;167.65;59.92;;;;;;;12.01;95.50;102340.06;5058395;28;20282;-87
2022/01/01 00:20:42;;;;;;;162.57;56.88;;;;;;;11.99;95.73;102333.19;5059744;28;20025;-88
2022/01/01 00:23:07;;;;;;;145.68;52.60;;;;;;;12.00;95.73;102324.50;5057471;28;20032;-88
2022/01/01 00:25:32;;;;;;;133.32;50.70;;;;;;;12.01;95.83;102334.88;5065985;28;20020;-88
2022/01/01 00:27:58;;;;;;;125.25;44.42;;;;;;;12.04;95.64;102347.00;5064497;28;20463;-88
2022/01/01 00:30:23;;;;;;;121.70;41.53;;;;;;;12.06;95.91;102350.47;5066880;28;20111;-88
2022/01/01 00:32:48;;;;;;;107.90;36.30;;;;;;;12.06;95.61;102355.66;5068281;28;20294;-88
2022/01/01 00:35:14;;;;;;;94.50;33.80;;;;;;;12.07;95.53;102344.41;5067045;28;20370;-88
2022/01/01 00:37:39;;;;;;;94.45;29.70;;;;;;;12.08;95.65;102346.09;5063478;28;20131;-88
2022/01/01 00:40:05;;;;;;;69.25;24.77;;;;;;;12.09;95.62;102345.22;5068265;28;20028;-88
2022/01/01 00:42:30;;;;;;;72.43;23.17;;;;;;;12.10;95.82;102337.44;5068179;28;20059;-88
2022/01/01 00:44:55;;;;;;;70.40;23.38;;;;;;;12.11;95.42;102340.91;5073109;28;20059;-88
2022/01/01 00:47:21;;;;;;;69.05;21.35;;;;;;;12.12;95.39;102332.22;5068628;28;20025;-88
2022/01/01 00:49:46;;;;;;;64.75;21.60;;;;;;;12.14;95.38;102338.28;5067931;28;20032;-88
2022/01/01 00:52:11;;;;;;;65.30;20.33;;;;;;;12.13;95.32;102328.75;5069337;28;20370;-88
2022/01/01 00:54:37;;;;;;;66.60;20.65;;;;;;;12.15;95.14;102330.47;5068143;28;20028;-87
2022/01/01 00:57:03;;;;;;;70.32;19.38;;;;;;;12.16;95.19;102323.53;5070161;28;20402;-88
2022/01/01 00:59:30;;;;;;;69.20;19.98;;;;;;;12.17;95.02;102327.84;5068502;28;20032;-88
2022/01/01 01:01:55;;;;;;;65.53;20.23;;;;;;;12.16;95.13;102334.78;5063173;28;20020;-88
2022/01/01 01:04:21;;;;;;;73.95;19.88;;;;;;;12.16;94.89;102340.00;5060286;28;20040;-88
2022/01/01 01:06:46;;;;;;;63.08;19.33;;;;;;;12.17;94.94;102343.44;5069807;28;20024;-88
2022/01/01 01:09:12;;;;;;;70.57;20.15;;;;;;;12.14;95.03;102341.75;5068313;28;20024;-87
2022/01/01 01:11:43;;;;;;;63.78;19.83;;;;;;;12.17;95.00;102348.66;5068318;28;20040;-88
2022/01/01 01:14:10;;;;;;;70.70;19.75;;;;;;;12.16;94.67;102339.13;5064402;28;20020;-88
2022/01/01 01:16:36;;;;;;;70.53;20.52;;;;;;;12.14;94.43;102333.97;5062887;28;20021;-87
2022/01/01 01:19:02;;;;;;;69.32;20.17;;;;;;;12.15;94.39;102337.38;5054552;28;20069;-88
2022/01/01 01:21:28;;;;;;;70.35;21.42;;;;;;;12.15;94.69;102345.19;5067787;28;20255;-88
2022/01/01 01:23:54;;;;;;;64.97;19.95;;;;;;;12.13;94.62;102347.81;5069950;28;20115;-88
2022/01/01 01:26:21;;;;;;;65.82;20.05;;;;;;;12.10;94.58;102342.63;5062784;28;20113;-88
2022/01/01 01:28:49;;;;;;;71.05;19.35;;;;;;;12.12;94.78;102351.28;5059727;28;20067;-88
2022/01/01 01:31:16;;;;;;;62.47;18.70;;;;;;;12.10;94.68;102352.16;5065632;28;20024;-87
2022/01/01 01:33:42;;;;;;;55.83;18.02;;;;;;;12.10;94.57;102353.03;5068133;28;20051;-88
2022/01/01 01:36:07;;;;;;;61.42;17.30;;;;;;;12.10;94.88;102358.22;5057180;28;20078;-88
2022/01/01 01:38:36;;;;;;;60.60;17.80;;;;;;;12.13;94.36;102363.41;5058521;28;20024;-88
2022/01/01 01:41:06;;;;;;;63.30;18.90;;;;;;;12.08;94.55;102357.38;5061187;28;20359;-88
2022/01/01 01:43:32;;;;;;;62.50;17.90;;;;;;;12.13;94.63;102365.16;5068992;28;20028;-88
2022/01/01 01:46:03;;;;;;;65.93;17.67;;;;;;;12.11;94.62;102361.69;5064526;28;20025;-88
2022/01/01 01:48:28;;;;;;;68.88;17.90;;;;;;;12.13;94.61;102366.03;5062393;28;20505;-88
2022/01/01 01:50:56;;;;;;;55.65;18.08;;;;;;;12.13;94.51;102360.81;5064665;28;20025;-88
2022/01/01 01:53:21;;;;;;;55.45;18.52;;;;;;;12.12;94.58;102372.09;5063607;28;20029;-88
2022/01/01 01:55:47;;;;;;;57.92;17.70;;;;;;;12.11;94.67;102374.69;5068741;28;20028;-87
2022/01/01 01:58:12;;;;;;;58.47;18.85;;;;;;;12.10;94.96;102380.75;5061492;28;20103;-88
2022/01/01 02:03:10;;;;;;;59.85;18.50;;;;;;;12.11;94.80;102385.09;5068939;28;20040;-88
2022/01/01 02:05:36;;;;;;;62.55;19.17;;;;;;;12.10;95.41;102388.56;5065912;28;20032;-88
2022/01/01 02:08:03;;;;;;;62.20;18.27;;;;;;;12.08;95.11;102387.69;5061913;28;20204;-88
2022/01/01 02:10:29;;;;;;;61.30;18.63;;;;;;;12.08;95.32;102388.56;5054595;28;20132;-88
2022/01/01 02:12:56;;;;;;;66.30;18.85;;;;;;;12.07;95.37;102386.84;5069017;28;20128;-88
2022/01/01 02:18:06;;;;;;;57.00;17.40;;;;;;;12.04;95.87;102373.84;5065241;28;20132;-86
2022/01/01 02:20:31;;;;;;;66.88;17.23;;;;;;;12.05;95.64;102378.19;5068018;28;20071;-88
2022/01/01 02:23:00;;;;;;;57.10;16.70;;;;;;;12.04;95.72;102373.84;5066730;28;20094;-88
2022/01/01 02:25:26;;;;;;;55.00;15.60;;;;;;;12.04;95.79;102365.19;5067683;28;20105;-88
2022/01/01 02:27:52;;;;;;;53.13;15.98;;;;;;;12.02;96.07;102357.41;5068589;28;20272;-87
2022/01/01 02:30:17;;;;;;;54.35;16.10;;;;;;;12.03;96.00;102356.53;5057397;28;20186;-88
2022/01/01 02:32:43;;;;;;;58.08;16.25;;;;;;;12.02;96.23;102353.94;5068383;28;20032;-88
2022/01/01 02:35:11;;;;;;;56.47;15.45;;;;;;;12.02;96.37;102364.31;5068450;28;20706;-88
2022/01/01 02:37:38;;;;;;;60.90;16.33;;;;;;;12.02;96.27;102367.78;5068323;28;20479;-88
2022/01/01 02:40:04;;;;;;;54.78;16.23;;;;;;;12.02;96.31;102369.53;5067622;28;20487;-81
2022/01/01 02:42:30;;;;;;;51.22;15.80;;;;;;;12.01;96.34;102368.66;5060998;28;20487;-81
2022/01/01 02:44:55;;;;;;;57.00;16.10;;;;;;;12.01;96.44;102365.22;5056138;28;20032;-81
2022/01/01 02:47:21;;;;;;;53.78;16.25;;;;;;;12.02;96.64;102364.31;5066801;28;20058;-81
2022/01/01 02:49:47;;;;;;;49.50;15.73;;;;;;;12.01;96.52;102367.81;5067676;28;20348;-81
2022/01/01 02:52:12;;;;;;;47.70;15.68;;;;;;;12.03;96.44;102368.66;5068341;28;20032;-81
2022/01/01 02:54:38;;;;;;;53.80;16.45;;;;;;;12.02;96.49;102362.59;5067129;28;20039;-81
2022/01/01 02:57:03;;;;;;;52.60;16.58;;;;;;;12.03;96.50;102353.94;5063467;28;20041;-81
2022/01/01 02:59:28;;;;;;;54.47;16.88;;;;;;;12.02;96.87;102356.53;5049599;28;20396;-81
2022/01/01 03:01:54;;;;;;;50.97;17.07;;;;;;;12.00;97.22;102343.56;5061869;28;20123;-81
2022/01/01 03:04:19;;;;;;;54.72;17.17;;;;;;;12.02;96.62;102333.13;5065799;28;20287;-81
2022/01/01 03:06:52;;;;;;;59.03;16.65;;;;;;;12.00;96.52;102333.19;5064933;28;20044;-81
2022/01/01 03:09:17;;;;;;;47.13;16.27;;;;;;;12.00;96.94;102330.56;5068843;28;20115;-89
2022/01/01 03:11:43;;;;;;;48.15;17.05;;;;;;;12.02;96.74;102330.53;5058007;28;20024;-88
2022/01/01 03:14:10;;;;;;;50.37;16.70;;;;;;;12.00;96.87;102334.91;5071100;28;20024;-89
2022/01/01 03:16:35;;;;;;;50.67;16.75;;;;;;;12.01;96.65;102341.84;5071711;28;20278;-88
2022/01/01 03:19:01;;;;;;;56.10;17.80;;;;;;;12.00;96.73;102340.97;5071929;28;20032;-88
2022/01/01 03:21:26;;;;;;;53.20;17.27;;;;;;;11.98;96.63;102345.31;5068325;28;20023;-88
2022/01/01 03:23:52;;;;;;;61.63;18.05;;;;;;;12.00;96.75;102343.56;5064083;28;20040;-88
2022/01/01 03:26:17;;;;;;;51.58;17.45;;;;;;;11.99;96.56;102343.56;5069898;28;20475;-88
2022/01/01 03:28:42;;;;;;;51.47;17.33;;;;;;;12.01;96.55;102341.84;5070495;28;20496;-88
2022/01/01 03:31:08;;;;;;;59.33;19.27;;;;;;;12.01;96.33;102337.47;5070171;28;20267;-88
2022/01/01 03:33:33;;;;;;;50.67;17.80;;;;;;;12.02;96.54;102339.22;5064057;28;20111;-88
2022/01/01 03:35:58;;;;;;;56.92;18.23;;;;;;;12.02;96.44;102344.41;5052116;28;20024;-88
2022/01/01 03:38:24;;;;;;;55.17;18.92;;;;;;;11.99;96.33;102334.03;5067343;28;20027;-88
2022/01/01 03:40:49;;;;;;;60.53;18.65;;;;;;;12.00;96.76;102327.97;5071744;28;20394;-88
2022/01/01 03:43:14;;;;;;;56.25;19.60;;;;;;;12.01;96.72;102331.44;5069962;28;20406;-88
2022/01/01 03:45:39;;;;;;;55.58;18.25;;;;;;;12.01;96.26;102332.28;5069653;28;20101;-88
2022/01/01 03:48:06;;;;;;;57.22;17.75;;;;;;;12.00;96.43;102335.78;5070275;28;20032;-88
2022/01/01 03:50:32;;;;;;;57.88;19.23;;;;;;;12.00;96.48;102330.56;5070068;28;20081;-88
2022/01/01 03:52:57;;;;;;;53.75;18.35;;;;;;;12.01;96.14;102327.06;5071270;28;20036;-88
2022/01/01 03:55:22;;;;;;;59.25;19.13;;;;;;;12.01;96.26;102328.84;5062469;28;20025;-88
2022/01/01 03:57:48;;;;;;;52.60;17.85;;;;;;;11.99;96.03;102325.38;5070813;28;20112;-89
2022/01/01 04:00:13;;;;;;;52.37;17.53;;;;;;;11.99;96.27;102327.97;5063038;28;20533;-88
2022/01/01 04:02:39;;;;;;;53.45;18.33;;;;;;;12.01;96.28;102321.03;5065656;28;20287;-88
2022/01/01 04:05:05;;;;;;;45.72;16.73;;;;;;;12.01;96.20;102323.66;5062687;28;20430;-88
2022/01/01 04:07:32;;;;;;;55.22;17.60;;;;;;;12.00;96.05;102330.56;5066300;28;20425;-89
2022/01/01 04:09:58;;;;;;;47.20;16.85;;;;;;;11.98;96.23;102324.50;5070808;28;20061;-88
2022/01/01 04:12:24;;;;;;;46.05;16.27;;;;;;;11.99;95.85;102323.66;5064840;28;20395;-88
2022/01/01 04:14:50;;;;;;;51.33;16.33;;;;;;;12.00;96.17;102327.13;5061293;28;20491;-88
2022/01/01 04:17:15;;;;;;;49.85;16.35;;;;;;;12.00;96.07;102330.56;5064238;28;20027;-88
2022/01/01 04:19:41;;;;;;;49.92;16.88;;;;;;;12.00;95.96;102330.56;5071068;28;20453;-88
2022/01/01 04:22:14;;;;;;;43.20;15.57;;;;;;;12.02;95.75;102327.94;5069142;28;20032;-88
2022/01/01 04:24:40;;;;;;;52.90;16.13;;;;;;;12.00;95.53;102322.78;5069523;28;20291;-88
2022/01/01 04:27:06;;;;;;;46.22;14.77;;;;;;;11.98;95.79;102324.50;5069246;28;20024;-88
2022/01/01 04:29:33;;;;;;;41.15;15.07;;;;;;;11.98;96.27;102314.13;5066263;28;20058;-88
2022/01/01 04:31:59;;;;;;;48.72;16.23;;;;;;;11.97;96.04;102322.78;5062218;28;20128;-88
2022/01/01 04:34:26;;;;;;;43.10;14.35;;;;;;;11.98;95.82;102318.44;5060002;28;20112;-88
2022/01/01 04:37:01;;;;;;;49.70;15.38;;;;;;;11.97;95.55;102322.78;5060483;28;20465;-88
2022/01/01 04:39:26;;;;;;;39.40;13.57;;;;;;;11.99;95.78;102333.19;5070251;28;20029;-81
2022/01/01 04:41:51;;;;;;;45.10;13.35;;;;;;;11.97;95.59;102337.50;5069983;28;20016;-81
2022/01/01 04:44:16;;;;;;;38.50;13.38;;;;;;;11.95;95.38;102331.44;5065794;28;20020;-81
2022/01/01 04:46:42;;;;;;;40.15;13.98;;;;;;;11.93;95.85;102326.28;5070130;28;20463;-81
2022/01/01 04:49:07;;;;;;;41.55;13.65;;;;;;;11.94;95.53;102333.19;5057435;28;20032;-81
2022/01/01 04:51:32;;;;;;;41.70;13.55;;;;;;;11.95;95.35;102336.66;5059904;28;20050;-81
2022/01/01 04:54:00;;;;;;;37.58;13.40;;;;;;;11.94;95.92;102324.56;5057833;28;20363;-81
2022/01/01 04:56:28;;;;;;;45.03;13.80;;;;;;;11.96;95.31;102335.78;5068031;28;20107;-81
2022/01/01 04:58:54;;;;;;;38.28;12.60;;;;;;;11.95;95.25;102331.44;5067005;28;20526;-81
2022/01/01 05:01:19;;;;;;;37.63;12.68;;;;;;;11.96;95.02;102330.59;5067360;28;20028;-81
2022/01/01 05:03:45;;;;;;;42.25;12.85;;;;;;;11.95;95.18;102331.44;5064737;28;20409;-81
2022/01/01 05:06:11;;;;;;;34.80;11.57;;;;;;;11.97;95.35;102342.72;5069701;28;20024;-81
2022/01/01 05:08:36;;;;;;;39.97;12.23;;;;;;;11.96;94.95;102343.56;5069614;28;20401;-81
2022/01/01 05:11:02;;;;;;;37.90;11.38;;;;;;;11.96;94.88;102344.44;5068063;28;20031;-81
2022/01/01 05:13:27;;;;;;;39.47;11.82;;;;;;;11.99;95.01;102335.78;5058693;28;20040;-81
2022/01/01 05:15:55;;;;;;;34.22;11.80;;;;;;;11.98;94.51;102347.91;5068020;28;20024;-81
2022/01/01 05:18:20;;;;;;;37.22;11.30;;;;;;;11.99;94.67;102348.78;5057400;28;20395;-81
2022/01/01 05:20:46;;;;;;;35.80;10.93;;;;;;;11.98;94.51;102347.03;5052581;28;20095;-81
2022/01/01 05:23:11;;;;;;;36.60;11.10;;;;;;;11.99;93.77;102353.97;5067796;28;20055;-81
2022/01/01 05:25:36;;;;;;;29.83;10.93;;;;;;;12.00;94.31;102353.09;5061612;28;20367;-81
2022/01/01 05:28:02;;;;;;;33.33;11.18;;;;;;;11.98;93.83;102344.44;5063564;28;20336;-81
2022/01/01 05:30:27;;;;;;;37.13;11.55;;;;;;;11.99;94.32;102343.56;5067828;28;20027;-81
2022/01/01 05:32:52;;;;;;;39.72;11.60;;;;;;;11.98;93.60;102349.63;5059362;28;20056;-81
2022/01/01 05:35:17;;;;;;;35.92;11.07;;;;;;;12.00;93.72;102343.56;5058298;28;20123;-81
2022/01/01 05:37:43;;;;;;;37.90;11.90;;;;;;;11.98;93.52;102339.25;5056326;28;20032;-81
2022/01/01 05:40:09;;;;;;;35.50;10.82;;;;;;;12.00;93.24;102340.09;5069205;28;20305;-88
2022/01/01 05:42:34;;;;;;;32.72;11.60;;;;;;;12.01;93.41;102336.63;5067987;28;20029;-88
2022/01/01 05:44:59;;;;;;;33.95;10.52;;;;;;;12.01;93.17;102341.84;5066305;28;20482;-88
2022/01/01 05:47:25;;;;;;;32.10;10.30;;;;;;;11.97;93.46;102340.97;5065611;28;20161;-88
2022/01/01 05:49:50;;;;;;;28.60;10.07;;;;;;;12.00;93.47;102353.09;5066359;28;20279;-88
2022/01/01 05:52:16;;;;;;;31.15;10.65;;;;;;;12.02;93.06;102364.31;5063666;28;20055;-88
2022/01/01 05:54:41;;;;;;;31.63;10.73;;;;;;;12.01;93.35;102352.22;5066714;28;20032;-88
2022/01/01 05:57:06;;;;;;;32.35;10.75;;;;;;;11.99;93.40;102348.78;5067705;28;20056;-88
2022/01/01 05:59:32;;;;;;;31.48;10.30;;;;;;;11.96;93.08;102343.56;5069543;28;20043;-87
2022/01/01 06:01:57;;;;;;;32.35;10.75;;;;;;;11.96;93.12;102333.19;5066490;28;20060;-88
2022/01/01 06:04:22;;;;;;;32.65;10.23;;;;;;;11.95;93.03;102339.25;5067815;28;20039;-88
2022/01/01 06:06:48;;;;;;;34.60;9.50;;;;;;;11.89;92.96;102342.75;5068486;28;20033;-88
2022/01/01 06:09:13;;;;;;;32.87;10.57;;;;;;;11.85;93.12;102344.50;5067094;28;20062;-88
2022/01/01 06:11:38;;;;;;;31.38;10.68;;;;;;;11.86;93.51;102342.78;5066179;28;20295;-87
2022/01/01 06:14:04;;;;;;;36.27;10.97;;;;;;;11.78;93.40;102328.97;5065871;28;20017;-88
2022/01/01 06:16:29;;;;;;;34.30;11.27;;;;;;;11.73;93.75;102341.94;5068929;28;20278;-88
2022/01/01 06:18:54;;;;;;;33.40;10.90;;;;;;;11.65;93.82;102328.13;5059155;28;20056;-88
2022/01/01 06:21:19;;;;;;;29.47;9.43;;;;;;;11.58;94.15;102320.34;5061884;28;20032;-88
2022/01/01 06:23:45;;;;;;;27.80;9.77;;;;;;;11.46;94.29;102323.88;5069155;28;20286;-88
2022/01/01 06:26:10;;;;;;;29.13;10.27;;;;;;;11.43;94.69;102336.84;5066631;28;20799;-88
2022/01/01 06:28:35;;;;;;;35.47;10.25;;;;;;;11.43;94.70;102335.13;5049511;28;20104;-87
2022/01/01 06:31:01;;;;;;;29.92;9.75;;;;;;;11.44;94.68;102334.25;5057583;28;20024;-87
2022/01/01 06:33:26;;;;;;;35.08;9.98;;;;;;;11.46;94.55;102334.25;5062795;28;20115;-86
2022/01/01 06:35:54;;;;;;;32.33;9.52;;;;;;;11.47;94.42;102347.22;5056294;28;20035;-88
2022/01/01 06:38:20;;;;;;;29.45;9.93;;;;;;;11.44;94.37;102346.38;5068381;28;20402;-81
2022/01/01 06:40:45;;;;;;;30.35;9.93;;;;;;;11.40;94.34;102342.03;5072831;28;20473;-81
2022/01/01 06:43:13;;;;;;;28.05;9.30;;;;;;;11.31;94.12;102353.34;5072621;28;20037;-81
2022/01/01 06:45:39;;;;;;;27.13;9.20;;;;;;;11.19;94.50;102353.34;5068789;28;20107;-81
2022/01/01 06:48:05;;;;;;;36.50;10.05;;;;;;;11.08;94.67;102349.91;5070190;28;20025;-81
2022/01/01 06:50:30;;;;;;;28.55;8.75;;;;;;;10.98;94.61;102346.50;5066438;28;20521;-81
2022/01/01 06:52:56;;;;;;;26.30;9.15;;;;;;;10.90;95.21;102344.75;5060393;28;20047;-81
2022/01/01 06:55:21;;;;;;;29.42;8.98;;;;;;;10.84;95.35;102356.00;5066730;28;20486;-81
2022/01/01 06:57:46;;;;;;;26.50;8.70;;;;;;;10.78;96.04;102350.78;5071113;28;20035;-81
2022/01/01 07:00:13;;;;;;;26.98;8.63;;;;;;;10.79;96.22;102357.72;5069938;28;20020;-81
2022/01/01 07:02:40;;;;;;;28.50;8.80;;;;;;;10.79;96.35;102349.06;5060947;28;20039;-81
2022/01/01 07:05:07;;;;;;;29.27;8.38;;;;;;;10.82;96.15;102355.13;5066236;28;20484;-81
2022/01/01 07:07:32;;;;;;;28.92;8.50;;;;;;;10.84;95.94;102350.81;5063586;28;20032;-81
2022/01/01 07:09:57;;;;;;;27.90;8.25;;;;;;;10.80;95.93;102349.06;5070232;28;20043;-87
2022/01/01 07:12:23;;;;;;;27.65;8.65;;;;;;;10.78;95.72;102361.16;5072057;28;20029;-88
2022/01/01 07:14:48;;;;;;;23.43;8.30;;;;;;;10.72;95.76;102361.16;5072204;28;20032;-87
2022/01/01 07:17:13;;;;;;;25.90;8.00;;;;;;;10.74;96.64;102368.97;5070976;28;20289;-88
2022/01/01 07:19:38;;;;;;;27.17;8.40;;;;;;;10.79;96.15;102377.59;5069601;28;20025;-88
2022/01/01 07:22:04;;;;;;;26.25;7.80;;;;;;;10.85;96.93;102378.47;5072003;28;20278;-88
2022/01/01 07:24:29;;;;;;;27.25;7.57;;;;;;;10.93;96.29;102381.06;5068546;28;20105;-88
2022/01/01 07:26:54;;;;;;;22.55;7.90;;;;;;;10.97;95.93;102373.28;5079109;28;20032;-88
2022/01/01 07:29:20;;;;;;;26.95;7.78;;;;;;;11.05;96.43;102379.31;5068502;28;20031;-87
2022/01/01 07:31:45;;;;;;;25.75;7.93;;;;;;;11.10;95.59;102374.13;5069751;28;20508;-88
2022/01/01 07:34:10;;;;;;;27.45;8.10;;;;;;;11.11;95.48;102368.09;5070923;28;20056;-88
2022/01/01 07:36:35;;;;;;;23.05;7.55;;;;;;;11.16;95.38;102373.25;5066362;28;20035;-88
2022/01/01 07:39:01;;;;;;;24.58;7.82;;;;;;;11.19;94.90;102376.69;5073824;28;20035;-88
2022/01/01 07:41:26;;;;;;;21.60;7.38;;;;;;;11.25;94.76;102383.63;5068034;28;20020;-88
2022/01/01 07:43:51;;;;;;;25.60;7.47;;;;;;;11.28;94.98;102378.44;5066718;28;20090;-87
2022/01/01 07:46:17;;;;;;;23.48;7.13;;;;;;;11.30;94.80;102376.69;5070497;28;20760;-88
2022/01/01 07:48:42;;;;;;;25.93;8.40;;;;;;;11.31;94.32;102378.44;5070612;28;20033;-88
2022/01/01 07:51:07;;;;;;;27.05;7.32;;;;;;;11.35;94.32;102382.75;5072282;28;20308;-88
2022/01/01 07:53:33;;;;;;;23.45;7.65;;;;;;;11.38;93.73;102380.16;5072879;28;20024;-88
2022/01/01 07:55:58;;;;;;;24.77;7.28;;;;;;;11.41;93.80;102387.91;5067480;28;20410;-89
2022/01/01 07:58:23;;;;;;;22.60;7.90;;;;;;;11.44;93.44;102395.72;5069414;28;20077;-88
2022/01/01 08:00:49;;;;;;;24.70;7.70;;;;;;;11.46;93.41;102400.00;5071105;28;20107;-89
2022/01/01 08:03:14;;;;;;;20.70;6.85;;;;;;;11.51;93.42;102401.75;5072957;28;20287;-87
2022/01/01 08:05:39;;;;;;;23.17;7.55;;;;;;;11.51;93.14;102402.63;5066192;28;20021;-88
2022/01/01 08:08:05;;;;;;;23.35;7.38;;;;;;;11.53;92.80;102397.44;5069530;28;20490;-89
2022/01/01 08:10:31;;;;;;;22.52;6.93;;;;;;;11.56;92.82;102403.47;5072481;28;20150;-89
2022/01/01 08:12:57;;;;;;;28.52;7.32;;;;;;;11.59;92.35;102405.19;5061152;28;20485;-89
2022/01/01 08:15:23;;;;;;;21.08;7.10;;;;;;;11.60;92.87;102396.53;5068620;28;20024;-88
2022/01/01 08:17:48;;;;;;;22.23;7.45;;;;;;;11.62;92.35;102400.84;5069757;28;20036;-89
2022/01/01 08:20:14;;;;;;;20.38;7.03;;;;;;;11.65;92.68;102406.03;5077255;28;21359;-89
2022/01/01 08:22:39;;;;;;;30.25;7.57;;;;;;;11.69;91.99;102397.34;5071862;28;20572;-89
2022/01/01 08:25:05;;;;;;;29.98;8.55;;;;;;;11.72;92.33;102397.34;5070084;28;20035;-89
2022/01/01 08:27:31;;;;;;;23.98;7.40;;;;;;;11.75;91.91;102402.56;5068145;28;20452;-89
2022/01/01 08:29:56;;;;;;;24.88;7.93;;;;;;;11.78;91.88;102392.16;5069092;28;20170;-88
2022/01/01 08:32:21;;;;;;;25.40;7.65;;;;;;;11.81;91.15;102396.47;5073458;28;20024;-89
2022/01/01 08:34:47;;;;;;;21.58;7.43;;;;;;;11.82;91.58;102393.00;5056924;28;20025;-88
2022/01/01 08:37:12;;;;;;;25.55;8.07;;;;;;;11.83;91.79;102389.53;5070480;28;20028;-87
2022/01/01 08:39:38;;;;;;;23.80;7.13;;;;;;;11.84;91.31;102389.53;5069217;28;20032;-88
2022/01/01 08:42:05;;;;;;;24.63;7.28;;;;;;;11.86;90.56;102395.59;5067692;28;20103;-89
2022/01/01 08:44:31;;;;;;;29.02;8.52;;;;;;;11.91;91.08;102394.72;5068831;28;20029;-88
2022/01/01 08:46:57;;;;;;;31.15;8.15;;;;;;;11.91;91.07;102390.38;5071659;28;20330;-88
2022/01/01 08:49:22;;;;;;;30.45;8.65;;;;;;;11.99;91.04;102392.94;5066660;28;20125;-88
2022/01/01 08:51:48;;;;;;;30.15;8.35;;;;;;;12.00;90.90;102386.88;5068784;28;20024;-88
2022/01/01 08:54:14;;;;;;;21.60;8.05;;;;;;;12.00;90.74;102394.69;5067863;28;20021;-88
2022/01/01 08:56:40;;;;;;;25.52;8.00;;;;;;;12.00;90.17;102389.50;5064989;28;20024;-89
2022/01/01 08:59:06;;;;;;;25.67;8.30;;;;;;;12.01;89.62;102401.63;5066606;28;20444;-90
2022/01/01 09:01:31;;;;;;;27.50;7.95;;;;;;;12.00;90.12;102395.56;5067480;28;20112;-88
2022/01/01 09:03:58;;;;;;;23.02;8.27;;;;;;;11.97;89.56;102400.75;5068775;28;20430;-89
2022/01/01 09:06:24;;;;;;;22.70;7.88;;;;;;;11.95;90.26;102397.28;5064575;28;20517;-85
2022/01/01 09:08:49;;;;;;;27.50;8.30;;;;;;;11.94;89.87;102385.16;5054472;28;20286;-85
2022/01/01 09:11:14;;;;;;;26.13;8.63;;;;;;;11.94;90.47;102392.13;5070040;28;20032;-86
2022/01/01 09:13:43;;;;;;;28.13;8.98;;;;;;;11.92;90.48;102389.53;5063211;28;20089;-85
2022/01/01 09:16:13;;;;;;;24.00;7.82;;;;;;;11.95;90.26;102383.41;5059418;28;20032;-86
2022/01/01 09:18:39;;;;;;;25.38;8.63;;;;;;;11.94;90.82;102386.91;5061315;28;20024;-82
2022/01/01 09:21:06;;;;;;;26.58;8.35;;;;;;;11.95;90.36;102388.63;5064987;28;20028;-83
2022/01/01 09:23:32;;;;;;;27.25;8.38;;;;;;;11.93;90.41;102383.47;5071746;28;20012;-82
2022/01/01 09:26:00;;;;;;;29.00;8.52;;;;;;;11.95;90.10;102393.81;5064693;28;20048;-83
2022/01/01 09:28:25;;;;;;;23.30;9.18;;;;;;;11.95;90.30;102383.41;5067142;28;20263;-83
2022/01/01 09:30:51;;;;;;;24.13;8.77;;;;;;;11.95;90.42;102383.41;5067057;28;20162;-82
2022/01/01 09:33:16;;;;;;;24.43;8.63;;;;;;;11.97;90.61;102384.28;5058467;28;21226;-82
2022/01/01 09:35:41;;;;;;;26.92;8.55;;;;;;;11.98;90.28;102379.09;5068785;28;20286;-83
2022/01/01 09:38:07;;;;;;;22.02;8.05;;;;;;;12.03;89.98;102382.53;5064145;28;20103;-83
2022/01/01 09:40:33;;;;;;;18.90;7.95;;;;;;;12.09;90.75;102371.22;5064159;28;20036;-83
2022/01/01 09:42:58;;;;;;;23.45;8.07;;;;;;;12.17;89.93;102374.66;5069004;28;20028;-84
2022/01/01 09:45:24;;;;;;;22.85;8.00;;;;;;;12.16;90.68;102365.13;5068163;28;20031;-83
2022/01/01 09:47:50;;;;;;;24.13;8.80;;;;;;;12.24;89.99;102390.22;5063821;28;20028;-82
2022/01/01 09:50:15;;;;;;;23.05;8.68;;;;;;;12.27;89.30;102377.22;5061320;28;20348;-85
2022/01/01 09:52:41;;;;;;;26.67;9.00;;;;;;;12.30;89.92;102378.91;5062809;28;20037;-86
2022/01/01 09:55:06;;;;;;;18.25;8.10;;;;;;;12.32;89.82;102373.69;5056570;28;20029;-85
2022/01/01 09:57:32;;;;;;;24.52;9.00;;;;;;;12.33;89.77;102378.03;5067934;28;20021;-85
2022/01/01 09:59:57;;;;;;;23.40;8.40;;;;;;;12.34;89.21;102378.03;5065356;28;20052;-85
2022/01/01 10:02:22;;;;;;;25.23;8.77;;;;;;;12.33;89.03;102372.84;5067096;28;20445;-85
2022/01/01 10:04:51;;;;;;;21.17;8.67;;;;;;;12.31;89.44;102372.84;5062162;28;20025;-84
2022/01/01 10:07:25;;;;;;;24.73;8.20;;;;;;;12.30;89.25;102370.22;5065618;28;20286;-85
2022/01/01 10:09:51;;;;;;;24.05;8.43;;;;;;;12.28;88.81;102372.88;5060051;28;20035;-84
2022/01/01 10:12:17;;;;;;;23.50;8.23;;;;;;;12.25;89.86;102371.16;5061198;28;20028;-89
2022/01/01 10:14:45;;;;;;;21.17;8.93;;;;;;;12.27;89.40;102365.94;5061026;28;20029;-86
2022/01/01 10:17:18;;;;;;;26.08;9.15;;;;;;;12.29;89.98;102353.78;5066733;28;20040;-86
2022/01/01 10:19:44;;;;;;;24.88;8.88;;;;;;;12.32;89.62;102334.69;5053987;28;20025;-86
2022/01/01 10:22:14;;;;;;;23.17;8.52;;;;;;;12.40;89.34;102332.91;5057694;28;20158;-86
2022/01/01 10:30:19;;;;;;;19.67;9.10;;;;;;;12.45;89.56;102320.72;5067838;28;20040;-86
2022/01/01 10:33:05;;;;;;;22.00;8.88;;;;;;;12.50;89.60;102318.94;5055818;28;20457;-86
2022/01/01 10:35:47;;;;;;;22.98;9.65;;;;;;;12.51;89.11;102326.75;5064424;28;20275;-87
2022/01/01 10:38:22;;;;;;;26.70;10.32;;;;;;;12.50;88.52;102317.22;5062300;28;20194;-87
2022/01/01 10:40:48;;;;;;;27.25;9.80;;;;;;;12.51;88.60;102312.88;5064075;28;20477;-88
2022/01/01 10:43:17;;;;;;;27.88;9.85;;;;;;;12.54;88.81;102318.94;5056413;28;20123;-87
2022/01/01 10:45:47;;;;;;;23.02;9.23;;;;;;;12.57;88.71;102320.63;5059304;28;20025;-87
2022/01/01 10:50:50;;;;;;;21.48;9.25;;;;;;;12.60;88.13;102313.69;5063349;28;20043;-88
2022/01/01 10:53:20;;;;;;;25.58;10.07;;;;;;;12.64;88.11;102307.56;5057482;28;20019;-88
2022/01/01 10:55:51;;;;;;;25.75;9.43;;;;;;;12.70;88.26;102306.63;5054047;28;20037;-88
2022/01/01 10:58:23;;;;;;;24.45;9.70;;;;;;;12.78;87.99;102296.16;5056827;28;20557;-87
2022/01/01 11:00:50;;;;;;;23.73;9.35;;;;;;;12.86;87.97;102292.63;5061078;28;20035;-89
2022/01/01 11:03:17;;;;;;;21.95;9.50;;;;;;;12.94;87.28;102303.81;5062410;28;20032;-89
2022/01/01 11:05:44;;;;;;;24.65;9.20;;;;;;;12.99;87.11;102299.41;5055034;28;20407;-90
2022/01/01 11:08:11;;;;;;;21.48;9.23;;;;;;;13.08;86.55;102293.25;5068374;28;20044;-89
2022/01/01 11:10:37;;;;;;;22.20;8.80;;;;;;;13.12;86.33;102294.06;5064921;28;20050;-90
2022/01/01 11:13:04;;;;;;;21.77;8.95;;;;;;;13.21;86.64;102294.00;5066051;28;20501;-90
2022/01/01 11:15:30;;;;;;;24.67;8.73;;;;;;;13.24;86.01;102294.81;5056948;28;20506;-90
2022/01/01 11:17:57;;;;;;;24.08;8.50;;;;;;;13.28;86.79;102296.53;5063025;28;20029;-89
2022/01/01 11:20:24;;;;;;;18.08;8.02;;;;;;;13.30;84.69;102304.34;5050754;28;20486;-81